Dutch
Home     News     Corporate     Events & Tours     Flight ops     Crew centre      
My transavia virtual    Join us    Last logs    Who is flying    Forum    Software    Training    VRTS     
 

view flightdata
view flightplan
view OFP
view flightlog



flightdata:
pilot: Theo Dijkman Dulkes
flight: TRA7943
from: EHAM (Amsterdam Schiphol)
to: EKEB (Esbjerg)
date: 26-06-2015
departure: 09:26z
arrival: 10:16z
duration: 0:50
aircraft: B737 (PHHSA)
distance: 263 NM
touchdown: -55 ft/m @ 142 KIAS



flightplan:
-(FPL-TRA7943-IS
-B737/M-SDEHPRWXY/EHLSB1
-EHAM0935
-N0430F230 GRONY UN873 LABIL N873 MIKRO
-EKEB0010 EHGG
-PBN/B1D1LO1 DOF/150626 REG/PHHSA SEL/JQDH CODE/4841A5 OPR/TRA RVR/200 RMK/TCAS)



operational flightplan (OFP):
NO LOADSHEET AVAILABLE

WEATHER BRIEFING - GENERATED 26 JUN 2015 09:20 UTC
--------------------------------------------------------------------------------

EHAM EKEB EHGG

--------------------------------------------------------------------------------
ORIGIN: EHAM (SCHIPHOL)
--------------------------------------------------------------------------------
EHAM 260855Z 23007KT 190V270 CAVOK 21/12 Q1018 NOSIG

EHAM 260432Z 2606/2712 12003KT CAVOK
      BECMG 2608/2611 27010KT FEW030
      BECMG 2614/2617 20006KT CAVOK
      BECMG 2619/2622 23010KT
      BECMG 2702/2705 28008KT BKN035 PROB30
      TEMPO 2703/2708 6000 -RADZ BKN010
      BECMG 2707/2710 29014KT SCT025


--------------------------------------------------------------------------------
DESTINATION: EKEB (ESBJERG)
--------------------------------------------------------------------------------
EKEB 260850Z AUTO 23005KT 160V250 9999NDV FEW015/// 16/12 Q1019



--------------------------------------------------------------------------------
ALTERNATE: EHGG (GRONINGEN)
--------------------------------------------------------------------------------
EHGG 260855Z AUTO 09003KT 050V170 9999 SCT015CB 17/14 Q1019 TEMPO 7000

EHGG 260456Z 2606/2712 VRB03KT 4500 BR NSC
      BECMG 2606/2608 17005KT CAVOK
      BECMG 2706/2709 28010KT SCT015 PROB30
      TEMPO 2709/2712 7000 -RADZ BKN020





flightlog:
Pilot : Theo Dijkman Dulkes
Flight: TRA7943
From  : EHAM Schiphol
To    : EKEB Esbjerg

[FLIGHTLOG] 1.4.2
26-06-2015 09:20:43z, logging started
26-06-2015 09:26:36z, parking brake released
26-06-2015 09:29:21z, take-off at 154 KIAS
26-06-2015 09:29:21z, pos report: 154 KIAS, 00 001 ft, heading 237, winds 221 @ 07 kts
26-06-2015 09:29:21z, flying online @ IVAO (TRA7943)
26-06-2015 09:29:21z, position: EHAM - Schiphol
26-06-2015 09:29:29z, retracted gear at 158 KIAS and 249 ft AGL
26-06-2015 09:29:36z, flaps set to 25%
26-06-2015 09:29:43z, flaps set to 12%
26-06-2015 09:29:58z, flaps set to 0%
26-06-2015 09:35:43z, pos report: 278 KIAS, 17 652 ft, heading 017, winds 141 @ 11 kts
26-06-2015 09:50:45z, pos report: 286 KIAS, 23 022 ft, heading 025, winds 049 @ 05 kts
26-06-2015 10:05:45z, pos report: 275 KIAS, 10 305 ft, heading 024, winds 238 @ 16 kts
26-06-2015 10:06:26z, deployed spoilers
26-06-2015 10:09:45z, below glideslope
26-06-2015 10:10:57z, lowered gear at 231 KIAS and 3160 ft AGL
26-06-2015 10:11:22z, flaps set to 12%
26-06-2015 10:11:34z, retracted spoilers
26-06-2015 10:11:38z, flaps set to 25%
26-06-2015 10:11:40z, flaps set to 37%
26-06-2015 10:12:24z, flaps set to 50%
26-06-2015 10:12:25z, flaps set to 62%
26-06-2015 10:12:52z, intercepted localizer
26-06-2015 10:14:02z, on glideslope
26-06-2015 10:14:16z, flaps set to 75%
26-06-2015 10:14:17z, flaps set to 87%
26-06-2015 10:16:27z, below glideslope
26-06-2015 10:16:49z, touchdown: -55ft/m at 142 KIAS
26-06-2015 10:16:49z, pos report: 142 KIAS, 00 105 ft, heading 080, winds 225 @ 06 kts
26-06-2015 10:16:49z, flying online @ IVAO (TRA7943)
26-06-2015 10:16:49z, position: EKEB - Esbjerg
26-06-2015 10:17:51z, deployed spoilers
26-06-2015 10:17:52z, flaps set to 0%
26-06-2015 10:17:53z, retracted spoilers
26-06-2015 10:16:48z, parking brake set
26-06-2015 10:19:09z, logging ended

©2009-2019, transavia virtual. All rights reserved. This website is only meant for simulation purposes.
This website is not owned by transavia, nor is transavia responsible for the content of this website.